sensor_id;sensor_type;location;lat;lon;timestamp;P1;durP1;ratioP1;P2;durP2;ratioP2
75236;SDS011;63826;48.100;-1.670;2023-04-24T00:01:11;5.00;;;1.60;;
75236;SDS011;63826;48.100;-1.670;2023-04-24T00:03:38;5.10;;;1.73;;
75236;SDS011;63826;48.100;-1.670;2023-04-24T00:06:04;3.95;;;1.48;;
75236;SDS011;63826;48.100;-1.670;2023-04-24T00:08:33;5.00;;;1.63;;
75236;SDS011;63826;48.100;-1.670;2023-04-24T00:10:59;4.45;;;1.60;;
75236;SDS011;63826;48.100;-1.670;2023-04-24T00:13:25;4.00;;;1.50;;
75236;SDS011;63826;48.100;-1.670;2023-04-24T00:15:53;4.70;;;1.70;;
75236;SDS011;63826;48.100;-1.670;2023-04-24T00:18:19;4.28;;;1.55;;
75236;SDS011;63826;48.100;-1.670;2023-04-24T00:20:45;4.78;;;1.80;;
75236;SDS011;63826;48.100;-1.670;2023-04-24T00:23:11;4.95;;;1.50;;
75236;SDS011;63826;48.100;-1.670;2023-04-24T00:25:38;5.13;;;1.73;;
75236;SDS011;63826;48.100;-1.670;2023-04-24T00:28:04;4.20;;;1.63;;
75236;SDS011;63826;48.100;-1.670;2023-04-24T00:30:30;4.07;;;1.60;;
75236;SDS011;63826;48.100;-1.670;2023-04-24T00:32:57;5.20;;;1.75;;
75236;SDS011;63826;48.100;-1.670;2023-04-24T00:35:23;3.65;;;1.63;;
75236;SDS011;63826;48.100;-1.670;2023-04-24T00:37:49;4.80;;;1.67;;
75236;SDS011;63826;48.100;-1.670;2023-04-24T00:40:15;4.80;;;1.60;;
75236;SDS011;63826;48.100;-1.670;2023-04-24T00:42:41;3.30;;;1.58;;
75236;SDS011;63826;48.100;-1.670;2023-04-24T00:45:07;5.75;;;2.15;;
75236;SDS011;63826;48.100;-1.670;2023-04-24T00:47:33;4.97;;;1.60;;
75236;SDS011;63826;48.100;-1.670;2023-04-24T00:50:03;4.37;;;1.60;;
75236;SDS011;63826;48.100;-1.670;2023-04-24T00:52:29;4.05;;;1.50;;
75236;SDS011;63826;48.100;-1.670;2023-04-24T00:54:56;4.43;;;1.50;;
75236;SDS011;63826;48.100;-1.670;2023-04-24T00:57:22;6.85;;;1.92;;
75236;SDS011;63826;48.100;-1.670;2023-04-24T00:59:49;4.60;;;1.67;;
75236;SDS011;63826;48.100;-1.670;2023-04-24T01:02:16;3.77;;;1.53;;
75236;SDS011;63826;48.100;-1.670;2023-04-24T01:04:42;3.90;;;1.40;;
75236;SDS011;63826;48.100;-1.670;2023-04-24T01:07:08;4.85;;;1.35;;
75236;SDS011;63826;48.100;-1.670;2023-04-24T01:09:37;5.68;;;1.58;;
75236;SDS011;63826;48.100;-1.670;2023-04-24T01:12:03;5.30;;;1.83;;
75236;SDS011;63826;48.100;-1.670;2023-04-24T01:14:31;4.65;;;1.52;;
75236;SDS011;63826;48.100;-1.670;2023-04-24T01:16:57;5.07;;;1.60;;
75236;SDS011;63826;48.100;-1.670;2023-04-24T01:19:23;4.97;;;1.67;;
75236;SDS011;63826;48.100;-1.670;2023-04-24T01:21:50;5.38;;;1.70;;
75236;SDS011;63826;48.100;-1.670;2023-04-24T01:24:16;4.30;;;1.50;;
75236;SDS011;63826;48.100;-1.670;2023-04-24T01:26:44;4.65;;;1.70;;
75236;SDS011;63826;48.100;-1.670;2023-04-24T01:29:10;5.10;;;1.75;;
75236;SDS011;63826;48.100;-1.670;2023-04-24T01:31:36;4.70;;;1.80;;
75236;SDS011;63826;48.100;-1.670;2023-04-24T01:34:02;6.10;;;1.85;;
75236;SDS011;63826;48.100;-1.670;2023-04-24T01:36:28;4.07;;;1.67;;
75236;SDS011;63826;48.100;-1.670;2023-04-24T01:38:56;6.28;;;2.03;;
75236;SDS011;63826;48.100;-1.670;2023-04-24T01:41:22;4.70;;;1.48;;
75236;SDS011;63826;48.100;-1.670;2023-04-24T01:43:48;4.32;;;1.60;;
75236;SDS011;63826;48.100;-1.670;2023-04-24T01:46:15;3.30;;;1.40;;
75236;SDS011;63826;48.100;-1.670;2023-04-24T01:48:41;6.20;;;1.90;;
75236;SDS011;63826;48.100;-1.670;2023-04-24T01:51:07;4.90;;;2.05;;
75236;SDS011;63826;48.100;-1.670;2023-04-24T01:53:33;4.32;;;1.60;;
75236;SDS011;63826;48.100;-1.670;2023-04-24T01:55:59;4.38;;;1.73;;
75236;SDS011;63826;48.100;-1.670;2023-04-24T01:58:26;4.97;;;1.63;;
75236;SDS011;63826;48.100;-1.670;2023-04-24T02:00:52;5.28;;;1.60;;
75236;SDS011;63826;48.100;-1.670;2023-04-24T02:03:18;5.03;;;1.55;;
75236;SDS011;63826;48.100;-1.670;2023-04-24T02:05:44;5.10;;;1.58;;
75236;SDS011;63826;48.100;-1.670;2023-04-24T02:08:10;4.97;;;1.60;;
75236;SDS011;63826;48.100;-1.670;2023-04-24T02:10:36;4.75;;;1.90;;
75236;SDS011;63826;48.100;-1.670;2023-04-24T02:13:03;5.23;;;1.60;;
75236;SDS011;63826;48.100;-1.670;2023-04-24T02:15:29;5.72;;;2.00;;
75236;SDS011;63826;48.100;-1.670;2023-04-24T02:17:55;5.65;;;1.40;;
75236;SDS011;63826;48.100;-1.670;2023-04-24T02:20:21;5.22;;;1.60;;
75236;SDS011;63826;48.100;-1.670;2023-04-24T02:22:47;3.60;;;1.35;;
75236;SDS011;63826;48.100;-1.670;2023-04-24T02:25:13;4.07;;;1.63;;
75236;SDS011;63826;48.100;-1.670;2023-04-24T02:27:39;5.15;;;1.65;;
75236;SDS011;63826;48.100;-1.670;2023-04-24T02:30:05;4.88;;;1.50;;
75236;SDS011;63826;48.100;-1.670;2023-04-24T02:32:32;4.45;;;1.60;;
75236;SDS011;63826;48.100;-1.670;2023-04-24T02:34:59;4.18;;;1.40;;
75236;SDS011;63826;48.100;-1.670;2023-04-24T02:37:24;6.40;;;1.80;;
75236;SDS011;63826;48.100;-1.670;2023-04-24T02:39:50;4.25;;;1.70;;
75236;SDS011;63826;48.100;-1.670;2023-04-24T02:42:17;5.32;;;1.75;;
75236;SDS011;63826;48.100;-1.670;2023-04-24T02:44:43;6.60;;;1.52;;
75236;SDS011;63826;48.100;-1.670;2023-04-24T02:47:09;4.70;;;1.70;;
75236;SDS011;63826;48.100;-1.670;2023-04-24T02:49:35;4.30;;;1.40;;
75236;SDS011;63826;48.100;-1.670;2023-04-24T02:52:01;7.55;;;1.83;;
75236;SDS011;63826;48.100;-1.670;2023-04-24T02:54:27;4.82;;;1.55;;
75236;SDS011;63826;48.100;-1.670;2023-04-24T02:56:53;5.33;;;1.60;;
75236;SDS011;63826;48.100;-1.670;2023-04-24T02:59:19;4.90;;;1.63;;
75236;SDS011;63826;48.100;-1.670;2023-04-24T03:01:46;5.30;;;1.83;;
75236;SDS011;63826;48.100;-1.670;2023-04-24T03:04:12;3.90;;;1.58;;
75236;SDS011;63826;48.100;-1.670;2023-04-24T03:06:38;5.10;;;1.33;;
75236;SDS011;63826;48.100;-1.670;2023-04-24T03:09:04;6.13;;;1.90;;
75236;SDS011;63826;48.100;-1.670;2023-04-24T03:11:30;4.85;;;1.60;;
75236;SDS011;63826;48.100;-1.670;2023-04-24T03:13:56;6.57;;;2.00;;
75236;SDS011;63826;48.100;-1.670;2023-04-24T03:16:22;4.18;;;1.38;;
75236;SDS011;63826;48.100;-1.670;2023-04-24T03:18:48;4.00;;;1.20;;
75236;SDS011;63826;48.100;-1.670;2023-04-24T03:21:14;6.15;;;1.55;;
75236;SDS011;63826;48.100;-1.670;2023-04-24T03:23:40;4.15;;;1.60;;
75236;SDS011;63826;48.100;-1.670;2023-04-24T03:26:06;4.32;;;1.50;;
75236;SDS011;63826;48.100;-1.670;2023-04-24T03:28:32;5.15;;;1.50;;
75236;SDS011;63826;48.100;-1.670;2023-04-24T03:30:58;4.80;;;1.30;;
75236;SDS011;63826;48.100;-1.670;2023-04-24T03:33:24;4.32;;;1.38;;
75236;SDS011;63826;48.100;-1.670;2023-04-24T03:35:50;5.25;;;1.70;;
75236;SDS011;63826;48.100;-1.670;2023-04-24T03:38:17;5.25;;;1.13;;
75236;SDS011;63826;48.100;-1.670;2023-04-24T03:40:43;5.20;;;1.70;;
75236;SDS011;63826;48.100;-1.670;2023-04-24T03:43:09;5.05;;;1.23;;
75236;SDS011;63826;48.100;-1.670;2023-04-24T03:45:35;3.08;;;1.23;;
75236;SDS011;63826;48.100;-1.670;2023-04-24T03:48:01;3.40;;;1.10;;
75236;SDS011;63826;48.100;-1.670;2023-04-24T03:50:27;4.23;;;1.83;;
75236;SDS011;63826;48.100;-1.670;2023-04-24T03:52:54;4.60;;;1.27;;
75236;SDS011;63826;48.100;-1.670;2023-04-24T03:55:20;3.45;;;1.33;;
75236;SDS011;63826;48.100;-1.670;2023-04-24T03:57:46;4.35;;;1.48;;
75236;SDS011;63826;48.100;-1.670;2023-04-24T04:00:12;4.82;;;1.50;;
75236;SDS011;63826;48.100;-1.670;2023-04-24T04:02:39;5.05;;;1.35;;
75236;SDS011;63826;48.100;-1.670;2023-04-24T04:05:05;3.08;;;1.30;;
75236;SDS011;63826;48.100;-1.670;2023-04-24T04:07:31;4.90;;;1.30;;
75236;SDS011;63826;48.100;-1.670;2023-04-24T04:09:57;4.32;;;1.40;;
75236;SDS011;63826;48.100;-1.670;2023-04-24T04:12:23;4.90;;;1.40;;
75236;SDS011;63826;48.100;-1.670;2023-04-24T04:14:49;4.32;;;1.20;;
75236;SDS011;63826;48.100;-1.670;2023-04-24T04:17:15;4.28;;;1.25;;
75236;SDS011;63826;48.100;-1.670;2023-04-24T04:19:41;4.55;;;1.42;;
75236;SDS011;63826;48.100;-1.670;2023-04-24T04:22:07;4.93;;;1.27;;
75236;SDS011;63826;48.100;-1.670;2023-04-24T04:24:33;4.53;;;1.17;;
75236;SDS011;63826;48.100;-1.670;2023-04-24T04:27:03;3.60;;;1.48;;
75236;SDS011;63826;48.100;-1.670;2023-04-24T04:29:29;4.10;;;1.27;;
75236;SDS011;63826;48.100;-1.670;2023-04-24T04:31:56;3.67;;;1.20;;
75236;SDS011;63826;48.100;-1.670;2023-04-24T04:34:22;3.63;;;1.13;;
75236;SDS011;63826;48.100;-1.670;2023-04-24T04:36:48;4.07;;;1.20;;
75236;SDS011;63826;48.100;-1.670;2023-04-24T04:39:15;4.35;;;1.17;;
75236;SDS011;63826;48.100;-1.670;2023-04-24T04:41:41;3.80;;;1.35;;
75236;SDS011;63826;48.100;-1.670;2023-04-24T04:44:07;4.30;;;1.70;;
75236;SDS011;63826;48.100;-1.670;2023-04-24T04:46:34;3.00;;;1.00;;
75236;SDS011;63826;48.100;-1.670;2023-04-24T04:49:02;3.83;;;1.25;;
75236;SDS011;63826;48.100;-1.670;2023-04-24T04:51:28;4.28;;;1.20;;
75236;SDS011;63826;48.100;-1.670;2023-04-24T04:53:54;4.25;;;1.20;;
75236;SDS011;63826;48.100;-1.670;2023-04-24T04:56:20;4.43;;;1.42;;
75236;SDS011;63826;48.100;-1.670;2023-04-24T04:58:47;3.60;;;1.00;;
75236;SDS011;63826;48.100;-1.670;2023-04-24T05:01:13;3.22;;;1.00;;
75236;SDS011;63826;48.100;-1.670;2023-04-24T05:03:39;4.13;;;1.15;;
75236;SDS011;63826;48.100;-1.670;2023-04-24T05:06:05;4.07;;;1.00;;
75236;SDS011;63826;48.100;-1.670;2023-04-24T05:08:31;4.70;;;1.48;;
75236;SDS011;63826;48.100;-1.670;2023-04-24T05:10:57;3.47;;;1.30;;
75236;SDS011;63826;48.100;-1.670;2023-04-24T05:13:23;5.25;;;1.20;;
75236;SDS011;63826;48.100;-1.670;2023-04-24T05:15:49;3.85;;;1.10;;
75236;SDS011;63826;48.100;-1.670;2023-04-24T05:18:15;2.92;;;0.98;;
75236;SDS011;63826;48.100;-1.670;2023-04-24T05:20:41;4.17;;;1.13;;
75236;SDS011;63826;48.100;-1.670;2023-04-24T05:23:08;3.45;;;1.10;;
75236;SDS011;63826;48.100;-1.670;2023-04-24T05:25:35;4.25;;;1.13;;
75236;SDS011;63826;48.100;-1.670;2023-04-24T05:28:01;4.63;;;1.17;;
75236;SDS011;63826;48.100;-1.670;2023-04-24T05:30:27;4.68;;;1.23;;
75236;SDS011;63826;48.100;-1.670;2023-04-24T05:32:53;2.97;;;1.00;;
75236;SDS011;63826;48.100;-1.670;2023-04-24T05:35:19;4.85;;;1.40;;
75236;SDS011;63826;48.100;-1.670;2023-04-24T05:37:45;4.25;;;1.27;;
75236;SDS011;63826;48.100;-1.670;2023-04-24T05:40:12;3.47;;;0.90;;
75236;SDS011;63826;48.100;-1.670;2023-04-24T05:42:38;2.90;;;0.90;;
75236;SDS011;63826;48.100;-1.670;2023-04-24T05:45:04;5.43;;;1.53;;
75236;SDS011;63826;48.100;-1.670;2023-04-24T05:47:30;4.68;;;1.20;;
75236;SDS011;63826;48.100;-1.670;2023-04-24T05:49:56;3.42;;;1.30;;
75236;SDS011;63826;48.100;-1.670;2023-04-24T05:52:22;3.72;;;1.17;;
75236;SDS011;63826;48.100;-1.670;2023-04-24T05:54:48;3.63;;;1.30;;
75236;SDS011;63826;48.100;-1.670;2023-04-24T05:57:14;5.10;;;1.23;;
75236;SDS011;63826;48.100;-1.670;2023-04-24T05:59:40;4.60;;;1.40;;
75236;SDS011;63826;48.100;-1.670;2023-04-24T06:02:06;4.53;;;1.30;;
75236;SDS011;63826;48.100;-1.670;2023-04-24T06:04:32;5.93;;;1.42;;
75236;SDS011;63826;48.100;-1.670;2023-04-24T06:06:59;3.87;;;1.10;;
75236;SDS011;63826;48.100;-1.670;2023-04-24T06:09:25;4.30;;;1.30;;
75236;SDS011;63826;48.100;-1.670;2023-04-24T06:11:51;4.53;;;1.10;;
75236;SDS011;63826;48.100;-1.670;2023-04-24T06:14:18;2.97;;;0.93;;
75236;SDS011;63826;48.100;-1.670;2023-04-24T06:16:44;4.57;;;1.35;;
75236;SDS011;63826;48.100;-1.670;2023-04-24T06:19:10;3.05;;;0.90;;
75236;SDS011;63826;48.100;-1.670;2023-04-24T06:21:36;2.75;;;1.00;;
75236;SDS011;63826;48.100;-1.670;2023-04-24T06:24:03;4.15;;;1.25;;
75236;SDS011;63826;48.100;-1.670;2023-04-24T06:26:32;5.90;;;1.20;;
75236;SDS011;63826;48.100;-1.670;2023-04-24T06:28:58;4.23;;;1.23;;
75236;SDS011;63826;48.100;-1.670;2023-04-24T06:31:25;3.22;;;1.05;;
75236;SDS011;63826;48.100;-1.670;2023-04-24T06:33:51;5.82;;;1.30;;
75236;SDS011;63826;48.100;-1.670;2023-04-24T06:36:17;6.13;;;1.40;;
75236;SDS011;63826;48.100;-1.670;2023-04-24T06:38:43;4.70;;;1.20;;
75236;SDS011;63826;48.100;-1.670;2023-04-24T06:41:09;3.25;;;1.10;;
75236;SDS011;63826;48.100;-1.670;2023-04-24T06:43:35;4.88;;;1.35;;
75236;SDS011;63826;48.100;-1.670;2023-04-24T06:46:01;5.22;;;1.13;;
75236;SDS011;63826;48.100;-1.670;2023-04-24T06:48:28;5.05;;;1.67;;
75236;SDS011;63826;48.100;-1.670;2023-04-24T06:50:54;3.30;;;1.20;;
75236;SDS011;63826;48.100;-1.670;2023-04-24T06:53:20;4.28;;;1.20;;
75236;SDS011;63826;48.100;-1.670;2023-04-24T06:55:46;4.35;;;1.05;;
75236;SDS011;63826;48.100;-1.670;2023-04-24T06:58:13;3.15;;;1.10;;
75236;SDS011;63826;48.100;-1.670;2023-04-24T07:00:40;4.85;;;1.08;;
75236;SDS011;63826;48.100;-1.670;2023-04-24T07:03:06;3.57;;;1.20;;
75236;SDS011;63826;48.100;-1.670;2023-04-24T07:05:32;3.58;;;1.00;;
75236;SDS011;63826;48.100;-1.670;2023-04-24T07:08:03;4.20;;;1.50;;
75236;SDS011;63826;48.100;-1.670;2023-04-24T07:10:29;5.00;;;1.20;;
75236;SDS011;63826;48.100;-1.670;2023-04-24T07:12:55;4.40;;;0.90;;
75236;SDS011;63826;48.100;-1.670;2023-04-24T07:15:21;3.30;;;0.90;;
75236;SDS011;63826;48.100;-1.670;2023-04-24T07:17:48;3.53;;;0.88;;
75236;SDS011;63826;48.100;-1.670;2023-04-24T07:20:14;3.90;;;1.13;;
75236;SDS011;63826;48.100;-1.670;2023-04-24T07:22:40;3.22;;;0.90;;
75236;SDS011;63826;48.100;-1.670;2023-04-24T07:25:06;4.25;;;1.00;;
75236;SDS011;63826;48.100;-1.670;2023-04-24T07:27:33;5.20;;;1.20;;
75236;SDS011;63826;48.100;-1.670;2023-04-24T07:29:59;4.43;;;1.35;;
75236;SDS011;63826;48.100;-1.670;2023-04-24T07:32:26;3.22;;;0.90;;
75236;SDS011;63826;48.100;-1.670;2023-04-24T07:34:51;3.75;;;1.00;;
75236;SDS011;63826;48.100;-1.670;2023-04-24T07:37:17;3.47;;;0.93;;
75236;SDS011;63826;48.100;-1.670;2023-04-24T07:39:44;3.88;;;0.95;;
75236;SDS011;63826;48.100;-1.670;2023-04-24T07:42:10;3.08;;;1.23;;
75236;SDS011;63826;48.100;-1.670;2023-04-24T07:44:35;2.90;;;1.00;;
75236;SDS011;63826;48.100;-1.670;2023-04-24T07:47:01;3.03;;;1.00;;
75236;SDS011;63826;48.100;-1.670;2023-04-24T07:49:27;3.77;;;1.20;;
75236;SDS011;63826;48.100;-1.670;2023-04-24T07:51:54;9.05;;;0.90;;
75236;SDS011;63826;48.100;-1.670;2023-04-24T07:54:20;2.92;;;1.02;;
75236;SDS011;63826;48.100;-1.670;2023-04-24T07:56:46;6.53;;;0.93;;
75236;SDS011;63826;48.100;-1.670;2023-04-24T07:59:12;4.40;;;1.10;;
75236;SDS011;63826;48.100;-1.670;2023-04-24T08:01:38;4.22;;;1.17;;
75236;SDS011;63826;48.100;-1.670;2023-04-24T08:04:04;4.68;;;0.85;;
75236;SDS011;63826;48.100;-1.670;2023-04-24T08:06:30;5.35;;;1.23;;
75236;SDS011;63826;48.100;-1.670;2023-04-24T08:08:57;4.82;;;0.90;;
75236;SDS011;63826;48.100;-1.670;2023-04-24T08:11:23;5.55;;;0.90;;
75236;SDS011;63826;48.100;-1.670;2023-04-24T08:13:49;5.70;;;1.10;;
75236;SDS011;63826;48.100;-1.670;2023-04-24T08:16:15;3.30;;;1.00;;
75236;SDS011;63826;48.100;-1.670;2023-04-24T08:18:41;2.58;;;0.75;;
75236;SDS011;63826;48.100;-1.670;2023-04-24T08:21:07;4.25;;;1.00;;
75236;SDS011;63826;48.100;-1.670;2023-04-24T08:23:33;4.07;;;0.90;;
75236;SDS011;63826;48.100;-1.670;2023-04-24T08:25:59;2.88;;;0.85;;
75236;SDS011;63826;48.100;-1.670;2023-04-24T08:28:25;4.72;;;1.20;;
75236;SDS011;63826;48.100;-1.670;2023-04-24T08:30:51;3.47;;;0.90;;
75236;SDS011;63826;48.100;-1.670;2023-04-24T08:33:20;3.83;;;0.93;;
75236;SDS011;63826;48.100;-1.670;2023-04-24T08:35:46;3.85;;;0.90;;
75236;SDS011;63826;48.100;-1.670;2023-04-24T08:38:12;5.13;;;1.20;;
75236;SDS011;63826;48.100;-1.670;2023-04-24T08:40:38;3.58;;;1.10;;
75236;SDS011;63826;48.100;-1.670;2023-04-24T08:43:04;3.22;;;0.90;;
75236;SDS011;63826;48.100;-1.670;2023-04-24T08:45:30;3.65;;;1.08;;
75236;SDS011;63826;48.100;-1.670;2023-04-24T08:47:58;3.30;;;1.10;;
75236;SDS011;63826;48.100;-1.670;2023-04-24T08:50:24;3.55;;;1.10;;
75236;SDS011;63826;48.100;-1.670;2023-04-24T08:52:51;2.80;;;0.80;;
75236;SDS011;63826;48.100;-1.670;2023-04-24T08:55:21;3.17;;;0.93;;
75236;SDS011;63826;48.100;-1.670;2023-04-24T08:57:49;3.47;;;1.05;;
75236;SDS011;63826;48.100;-1.670;2023-04-24T09:00:16;3.00;;;0.93;;
75236;SDS011;63826;48.100;-1.670;2023-04-24T09:02:42;2.85;;;1.00;;
75236;SDS011;63826;48.100;-1.670;2023-04-24T09:05:09;2.67;;;1.08;;
75236;SDS011;63826;48.100;-1.670;2023-04-24T09:07:35;5.03;;;0.80;;
75236;SDS011;63826;48.100;-1.670;2023-04-24T09:10:05;5.63;;;1.23;;
75236;SDS011;63826;48.100;-1.670;2023-04-24T09:12:32;4.47;;;0.98;;
75236;SDS011;63826;48.100;-1.670;2023-04-24T09:15:00;2.28;;;0.77;;
